SKPE/PEI METAR and TAF weather

Enter ICAO airport designator
Station Type Date Time Source
SKPE METAR 2022/06/27 06:00 UTC NOAA

SKPE 270600Z VRB02KT 9999 -DZ SCT010 BKN070 18/17 Q1021 RMK A3015


Station Type Date Time Source
SKPE Decoded METAR 2022/06/27 06:00 UTC NOAA

Pereira / Matecana, Colombia (SKPE) 04-49N 075-44W 1342M
Jun 27, 2022 - 02:00 AM EDT / 2022.06.27 0600 UTC
Wind: Variable at 2 MPH (2 KT):0
Visibility: greater than 7 mile(s):0
Sky conditions: mostly cloudy
Weather: light drizzle
Temperature: 64 F (18 C)
Dew Point: 62 F (17 C)
Relative Humidity: 93%
Pressure (altimeter): 30.15 in. Hg (1021 hPa)
ob: SKPE 270600Z VRB02KT 9999 -DZ SCT010 BKN070 18/17 Q1021 RMK A3015
cycle: 6

Station Type Date Time Source
SKPE TAF 2022/06/27 06:45 UTC NOAA

TAF SKPE 270430Z 2706/2806 VRB02KT 9999 DZ SCT010 BKN080
BECMG 2709/2711 4000 BR BKN010
BECMG 2714/2716 9999 NSW SCT015
TEMPO 2719/2721 SCT015TCU
TEMPO 2721/2801 DZ SCT015CB BKN080 TX25/2719Z TN17/2711Z

Example: see airport list